createdAt,value
2022-10-19T00:03:01.616Z,20.63
2022-10-19T00:05:47.189Z,23.45
2022-10-19T00:08:33.112Z,20.45
2022-10-19T00:11:19.389Z,18.70
2022-10-19T00:14:05.262Z,21.88
2022-10-19T00:16:52.571Z,22.23
2022-10-19T00:19:38.189Z,21.25
2022-10-19T00:22:23.922Z,18.88
2022-10-19T00:25:09.737Z,19.90
2022-10-19T00:27:55.520Z,22.50
2022-10-19T00:30:41.353Z,17.30
2022-10-19T00:33:26.993Z,17.38
2022-10-19T00:36:21.554Z,18.20
2022-10-19T00:39:10.915Z,21.80
2022-10-19T00:41:56.751Z,22.25
2022-10-19T00:44:42.637Z,16.60
2022-10-19T00:47:29.173Z,25.25
2022-10-19T00:50:15.190Z,20.65
2022-10-19T00:53:01.481Z,14.65
2022-10-19T00:55:47.174Z,21.58
2022-10-19T00:58:33.244Z,20.00
2022-10-19T01:01:21.027Z,16.85
2022-10-19T01:04:06.846Z,23.98
2022-10-19T01:06:55.571Z,17.73
2022-10-19T01:09:41.348Z,18.77
2022-10-19T01:12:56.034Z,18.63
2022-10-19T01:15:47.478Z,23.05
2022-10-19T01:18:45.082Z,16.80
2022-10-19T01:22:08.538Z,16.17
2022-10-19T01:25:09.890Z,22.70
2022-10-19T01:28:15.357Z,19.30
2022-10-19T01:31:25.227Z,22.00
2022-10-19T01:34:32.570Z,19.50
2022-10-19T01:37:23.235Z,23.20
2022-10-19T01:40:13.080Z,18.48
2022-10-19T01:43:03.615Z,16.83
2022-10-19T01:45:55.113Z,20.42
2022-10-19T01:48:48.573Z,16.73
2022-10-19T01:51:36.312Z,19.15
2022-10-19T01:54:22.846Z,19.85
2022-10-19T01:57:11.642Z,19.23
2022-10-19T01:59:58.274Z,17.92
2022-10-19T02:02:47.984Z,14.98
2022-10-19T02:05:34.803Z,16.20
2022-10-19T02:08:29.212Z,16.45
2022-10-19T02:11:16.010Z,17.30
2022-10-19T02:14:07.782Z,15.40
2022-10-19T02:16:59.029Z,19.15
2022-10-19T02:19:45.371Z,12.68
2022-10-19T02:22:31.572Z,15.23
2022-10-19T02:25:17.514Z,17.35
2022-10-19T02:28:04.551Z,16.15
2022-10-19T02:30:50.651Z,18.23
2022-10-19T02:33:36.992Z,15.77
2022-10-19T02:36:23.127Z,14.32
2022-10-19T02:39:09.023Z,15.18
2022-10-19T02:42:11.787Z,13.32
2022-10-19T02:45:00.575Z,14.23
2022-10-19T02:47:54.931Z,16.35
2022-10-19T02:50:45.126Z,13.98
2022-10-19T02:53:31.366Z,16.05
2022-10-19T02:56:16.800Z,19.27
2022-10-19T02:59:03.528Z,16.75
2022-10-19T03:01:49.143Z,12.45
2022-10-19T03:04:35.176Z,12.95
2022-10-19T03:07:21.748Z,17.33
2022-10-19T03:10:07.726Z,14.18
2022-10-19T03:12:53.232Z,14.40
2022-10-19T03:15:39.002Z,14.52
2022-10-19T03:18:24.560Z,15.27
2022-10-19T03:21:12.899Z,15.27
2022-10-19T03:24:00.790Z,15.82
2022-10-19T03:26:46.883Z,13.23
2022-10-19T03:29:32.531Z,11.13
2022-10-19T03:32:18.512Z,16.00
2022-10-19T03:35:04.821Z,17.08
2022-10-19T03:37:50.539Z,12.25
2022-10-19T03:40:36.352Z,11.23
2022-10-19T03:43:22.105Z,15.90
2022-10-19T03:46:08.618Z,14.80
2022-10-19T03:48:55.076Z,12.45
2022-10-19T03:51:40.843Z,14.45
2022-10-19T03:54:27.574Z,10.35
2022-10-19T03:57:13.523Z,11.80
2022-10-19T03:59:59.812Z,13.75
2022-10-19T04:02:45.645Z,10.85
2022-10-19T04:05:31.405Z,12.05
2022-10-19T04:08:17.203Z,11.45
2022-10-19T04:11:07.965Z,12.07
2022-10-19T04:13:54.325Z,9.75
2022-10-19T04:16:40.120Z,12.38
2022-10-19T04:19:25.610Z,10.93
2022-10-19T04:22:11.125Z,7.60
2022-10-19T04:24:56.727Z,13.00
2022-10-19T04:27:42.546Z,12.55
2022-10-19T04:30:28.115Z,10.07
2022-10-19T04:33:14.293Z,8.95
2022-10-19T04:36:05.139Z,9.35
2022-10-19T04:38:50.870Z,7.55
2022-10-19T04:41:37.884Z,11.15
2022-10-19T04:47:14.107Z,10.45
2022-10-19T04:49:59.664Z,11.73
2022-10-19T04:52:45.873Z,12.75
2022-10-19T04:55:31.600Z,12.27
2022-10-19T04:58:17.276Z,12.98
2022-10-19T05:01:17.273Z,12.23
2022-10-19T05:04:03.619Z,10.82
2022-10-19T05:06:49.655Z,11.20
2022-10-19T05:09:35.213Z,9.80
2022-10-19T05:12:21.267Z,19.10
2022-10-19T05:15:07.295Z,16.98
2022-10-19T05:17:54.399Z,8.55
2022-10-19T05:20:40.384Z,11.85
2022-10-19T05:23:26.302Z,9.75
2022-10-19T05:26:17.443Z,13.93
2022-10-19T05:29:04.522Z,11.27
2022-10-19T05:31:51.036Z,7.22
2022-10-19T05:34:36.594Z,8.95
2022-10-19T05:37:22.489Z,11.93
2022-10-19T05:40:09.480Z,10.85
2022-10-19T05:42:55.575Z,12.80
2022-10-19T05:45:42.016Z,9.82
2022-10-19T05:48:32.941Z,10.48
2022-10-19T05:51:20.266Z,6.85
2022-10-19T05:54:06.507Z,9.48
2022-10-19T05:56:52.708Z,10.80
2022-10-19T05:59:38.160Z,7.10
2022-10-19T06:02:24.399Z,11.32
2022-10-19T06:05:10.282Z,7.13
2022-10-19T06:07:55.909Z,11.18
2022-10-19T06:10:41.416Z,12.52
2022-10-19T06:13:27.284Z,8.60
2022-10-19T06:16:18.289Z,10.73
2022-10-19T06:19:05.282Z,10.52
2022-10-19T06:21:50.906Z,11.20
2022-10-19T06:24:36.908Z,9.27
2022-10-19T06:27:22.821Z,11.40
2022-10-19T06:30:09.229Z,6.28
2022-10-19T06:32:55.016Z,9.13
2022-10-19T06:35:42.991Z,11.88
2022-10-19T06:38:28.606Z,5.82
2022-10-19T06:41:14.198Z,10.48
2022-10-19T06:44:00.172Z,8.32
2022-10-19T06:46:46.588Z,7.70
2022-10-19T06:49:32.085Z,8.07
2022-10-19T06:52:17.952Z,8.32
2022-10-19T06:55:04.004Z,7.70
2022-10-19T06:57:50.216Z,9.15
2022-10-19T07:00:36.671Z,11.50
2022-10-19T07:03:22.216Z,14.40
2022-10-19T07:06:09.949Z,6.80
2022-10-19T07:08:55.847Z,7.82
2022-10-19T07:11:45.726Z,10.95
2022-10-19T07:14:38.566Z,10.82
2022-10-19T07:17:24.050Z,10.82
2022-10-19T07:20:10.773Z,6.38
2022-10-19T07:22:56.543Z,7.55
2022-10-19T07:25:42.505Z,8.40
2022-10-19T07:28:29.476Z,6.32
2022-10-19T07:31:20.684Z,3.38
2022-10-19T07:36:52.648Z,7.00
2022-10-19T07:39:38.525Z,5.90
2022-10-19T07:42:24.584Z,6.53
2022-10-19T07:45:10.635Z,7.07
2022-10-19T07:47:56.744Z,5.95
2022-10-19T07:50:47.924Z,6.65
2022-10-19T07:53:34.753Z,8.07
2022-10-19T07:56:23.017Z,8.68
2022-10-19T07:59:09.941Z,7.75
2022-10-19T08:01:57.128Z,9.88
2022-10-19T08:04:59.393Z,9.60
2022-10-19T08:07:46.995Z,6.30
2022-10-19T08:10:33.208Z,9.85
2022-10-19T08:13:18.780Z,6.18
2022-10-19T08:16:04.974Z,4.22
2022-10-19T08:18:51.166Z,7.03
2022-10-19T08:21:38.129Z,6.72
2022-10-19T08:24:23.589Z,7.60
2022-10-19T08:27:09.375Z,6.25
2022-10-19T08:29:55.260Z,4.15
2022-10-19T08:32:41.221Z,5.25
2022-10-19T08:35:27.768Z,3.90
2022-10-19T08:38:13.360Z,7.30
2022-10-19T08:41:08.940Z,6.63
2022-10-19T08:44:18.698Z,5.60
2022-10-19T08:47:38.668Z,7.43
2022-10-19T08:50:44.402Z,9.85
2022-10-19T08:53:40.239Z,9.43
2022-10-19T08:56:50.566Z,5.05
2022-10-19T09:02:33.019Z,4.07
2022-10-19T09:05:34.395Z,6.28
2022-10-19T09:08:20.780Z,5.57
2022-10-19T09:11:09.773Z,5.57
2022-10-19T09:14:05.630Z,4.78
2022-10-19T09:16:52.010Z,5.13
2022-10-19T09:19:38.380Z,6.03
2022-10-19T09:22:29.797Z,6.30
2022-10-19T09:25:21.772Z,7.10
2022-10-19T09:28:25.693Z,6.72
2022-10-19T09:31:29.123Z,7.38
2022-10-19T09:37:04.441Z,4.82
2022-10-19T09:39:54.125Z,6.38
2022-10-19T09:42:40.979Z,11.55
2022-10-19T09:45:35.208Z,6.28
2022-10-19T09:48:29.888Z,3.85
2022-10-19T09:51:17.260Z,4.95
2022-10-19T09:54:04.302Z,4.30
2022-10-19T09:56:54.430Z,3.90
2022-10-19T09:59:42.419Z,5.70
2022-10-19T10:02:31.029Z,3.08
2022-10-19T10:05:16.794Z,5.03
2022-10-19T10:08:04.359Z,2.85
2022-10-19T10:11:12.397Z,2.88
2022-10-19T10:14:00.656Z,5.45
2022-10-19T10:16:46.424Z,3.97
2022-10-19T10:19:33.941Z,1.40
2022-10-19T10:22:26.053Z,5.00
2022-10-19T10:25:16.275Z,5.57
2022-10-19T10:28:18.376Z,2.90
2022-10-19T10:31:07.905Z,2.75
2022-10-19T10:34:10.825Z,6.38
2022-10-19T10:37:11.312Z,2.72
2022-10-19T10:40:01.755Z,1.75
2022-10-19T10:42:52.320Z,2.83
2022-10-19T10:45:41.161Z,2.65
2022-10-19T10:48:41.458Z,1.83
2022-10-19T10:51:32.030Z,1.40
2022-10-19T10:54:30.426Z,1.65
2022-10-19T10:57:19.981Z,8.93
2022-10-19T11:00:12.262Z,1.27
2022-10-19T11:03:13.467Z,1.98
2022-10-19T11:06:05.368Z,1.80
2022-10-19T11:08:57.858Z,1.20
2022-10-19T11:11:46.232Z,4.82
2022-10-19T11:14:52.531Z,2.25
2022-10-19T11:17:41.449Z,1.65
2022-10-19T11:20:30.363Z,2.83
2022-10-19T11:23:41.061Z,1.40
2022-10-19T11:29:35.830Z,1.40
2022-10-19T11:32:47.129Z,1.73
2022-10-19T11:35:45.052Z,1.77
2022-10-19T11:38:37.030Z,2.72
2022-10-19T11:41:44.645Z,1.70
2022-10-19T11:44:36.857Z,4.88
2022-10-19T11:48:02.612Z,3.35
2022-10-19T11:50:54.048Z,4.47
2022-10-19T11:53:58.516Z,1.38
2022-10-19T11:57:04.073Z,3.35
2022-10-19T11:59:50.843Z,1.40
2022-10-19T12:02:39.697Z,1.77
2022-10-19T12:05:28.013Z,1.92
2022-10-19T12:08:42.760Z,0.98
2022-10-19T12:11:49.996Z,3.40
2022-10-19T12:14:37.281Z,2.35
2022-10-19T12:17:29.614Z,2.17
2022-10-19T12:20:41.389Z,2.95
2022-10-19T12:23:38.577Z,1.73
2022-10-19T12:26:24.993Z,4.00
2022-10-19T12:29:16.447Z,3.15
2022-10-19T12:32:03.503Z,0.90
2022-10-19T12:35:00.447Z,1.63
2022-10-19T12:38:02.883Z,1.42
2022-10-19T12:40:54.261Z,2.63
2022-10-19T12:43:55.999Z,1.58
2022-10-19T12:46:47.012Z,1.63
2022-10-19T12:49:35.894Z,1.10
2022-10-19T12:52:42.263Z,6.38
2022-10-19T12:55:34.712Z,2.30
2022-10-19T12:58:21.966Z,1.95
2022-10-19T13:01:09.531Z,1.75
2022-10-19T13:04:13.850Z,1.65
2022-10-19T13:07:03.232Z,1.92
2022-10-19T13:09:49.350Z,1.67
2022-10-19T13:12:44.176Z,0.73
2022-10-19T13:15:36.471Z,2.10
2022-10-19T13:19:02.193Z,4.18
2022-10-19T13:22:12.870Z,1.10
2022-10-19T13:28:07.992Z,1.42
2022-10-19T13:31:00.489Z,1.17
2022-10-19T13:33:52.244Z,5.47
2022-10-19T13:36:40.215Z,2.10
2022-10-19T13:39:27.769Z,2.15
2022-10-19T13:42:24.230Z,1.55
2022-10-19T13:45:21.953Z,3.60
2022-10-19T13:48:18.852Z,3.30
2022-10-19T13:51:11.227Z,1.58
2022-10-19T13:54:23.815Z,6.40
2022-10-19T13:57:18.721Z,1.60
2022-10-19T14:00:18.131Z,1.42
2022-10-19T14:03:19.328Z,1.92
2022-10-19T14:06:27.656Z,4.45
2022-10-19T14:09:29.511Z,3.95
2022-10-19T14:12:24.446Z,3.08
2022-10-19T14:15:25.787Z,1.42
2022-10-19T14:18:22.975Z,2.58
2022-10-19T14:21:09.838Z,2.60
2022-10-19T14:23:55.740Z,1.33
2022-10-19T14:26:41.290Z,3.20
2022-10-19T14:29:27.481Z,3.55
2022-10-19T14:32:13.882Z,2.25
2022-10-19T14:35:06.844Z,4.47
2022-10-19T14:37:52.880Z,2.97
2022-10-19T14:40:40.735Z,4.80
2022-10-19T14:43:30.424Z,5.13
2022-10-19T14:46:16.954Z,6.07
2022-10-19T14:49:06.164Z,2.53
2022-10-19T14:51:55.377Z,4.53
2022-10-19T14:54:43.751Z,3.45
2022-10-19T14:57:33.088Z,4.47
2022-10-19T15:00:21.978Z,8.75
2022-10-19T15:03:11.463Z,9.25
2022-10-19T15:06:01.671Z,9.00
2022-10-19T15:08:51.079Z,12.70
2022-10-19T15:11:39.459Z,12.10
2022-10-19T15:14:30.821Z,13.82
2022-10-19T15:17:26.200Z,10.07
2022-10-19T15:20:26.446Z,4.00
2022-10-19T15:23:33.728Z,5.80
2022-10-19T15:26:52.326Z,14.30
2022-10-19T15:30:04.874Z,10.32
2022-10-19T15:33:04.325Z,22.23
2022-10-19T15:35:50.642Z,19.88
2022-10-19T15:38:36.421Z,15.25
2022-10-19T15:41:30.543Z,17.02
2022-10-19T15:44:51.934Z,11.48
2022-10-19T15:47:37.476Z,11.75
2022-10-19T15:50:37.950Z,8.82
2022-10-19T15:53:25.088Z,8.18
2022-10-19T15:56:13.585Z,6.38
2022-10-19T15:59:04.125Z,4.97
2022-10-19T16:01:55.001Z,7.65
2022-10-19T16:04:42.051Z,7.55
2022-10-19T16:07:30.710Z,8.15
2022-10-19T16:10:19.186Z,12.07
2022-10-19T16:13:05.088Z,10.48
2022-10-19T16:16:01.296Z,8.43
2022-10-19T16:18:56.991Z,9.00
2022-10-19T16:21:45.639Z,8.68
2022-10-19T16:24:33.619Z,5.53
2022-10-19T16:27:19.133Z,6.72
2022-10-19T16:30:05.836Z,8.10
2022-10-19T16:32:51.416Z,14.30
2022-10-19T16:35:37.914Z,12.18
2022-10-19T16:38:23.560Z,14.73
2022-10-19T16:41:10.570Z,19.15
2022-10-19T16:43:56.810Z,30.80
2022-10-19T16:46:42.844Z,27.17
2022-10-19T16:49:28.529Z,29.25
2022-10-19T16:52:14.461Z,36.95
2022-10-19T16:55:00.139Z,31.48
2022-10-19T16:57:45.865Z,25.45
2022-10-19T17:00:31.765Z,66.22
2022-10-19T17:03:17.463Z,49.80
2022-10-19T17:06:05.224Z,86.22
2022-10-19T17:09:29.930Z,52.95
2022-10-19T17:11:56.494Z,42.05
2022-10-19T17:14:42.879Z,35.70
2022-10-19T17:17:28.683Z,48.95
2022-10-19T17:20:15.772Z,60.80
2022-10-19T17:23:01.621Z,57.03
2022-10-19T17:25:48.389Z,43.92
2022-10-19T17:28:35.196Z,38.83
2022-10-19T17:31:21.194Z,34.35
2022-10-19T17:34:07.227Z,33.25
2022-10-19T17:36:52.880Z,45.63
2022-10-19T17:39:38.402Z,48.15
2022-10-19T17:42:24.122Z,39.88
2022-10-19T17:45:10.139Z,30.98
2022-10-19T17:47:56.525Z,25.38
2022-10-19T17:50:42.245Z,21.50
2022-10-19T17:53:29.049Z,21.05
2022-10-19T17:56:19.369Z,20.38
2022-10-19T17:59:08.195Z,20.83
2022-10-19T18:01:54.201Z,21.05
2022-10-19T18:04:40.329Z,26.85
2022-10-19T18:07:26.568Z,33.17
2022-10-19T18:10:13.444Z,25.92
2022-10-19T18:12:59.165Z,32.33
2022-10-19T18:15:45.081Z,28.15
2022-10-19T18:18:32.932Z,28.23
2022-10-19T18:21:21.218Z,24.48
2022-10-19T18:24:14.283Z,28.77
2022-10-19T18:27:01.521Z,30.48
2022-10-19T18:29:47.387Z,34.40
2022-10-19T18:32:33.586Z,31.90
2022-10-19T18:35:19.594Z,28.65
2022-10-19T18:38:06.602Z,28.25
2022-10-19T18:40:53.426Z,26.35
2022-10-19T18:43:40.646Z,22.60
2022-10-19T18:46:26.705Z,30.00
2022-10-19T18:49:13.089Z,26.13
2022-10-19T18:51:58.676Z,23.40
2022-10-19T18:54:44.874Z,24.70
2022-10-19T18:57:31.868Z,26.23
2022-10-19T19:00:17.610Z,19.17
2022-10-19T19:03:03.582Z,21.08
2022-10-19T19:05:50.061Z,18.15
2022-10-19T19:08:36.502Z,21.35
2022-10-19T19:11:24.656Z,21.13
2022-10-19T19:14:15.973Z,15.40
2022-10-19T19:17:02.002Z,17.27
2022-10-19T19:19:47.423Z,19.83
2022-10-19T19:22:34.392Z,14.75
2022-10-19T19:25:20.667Z,19.77
2022-10-19T19:28:06.593Z,21.77
2022-10-19T19:30:52.525Z,21.48
2022-10-19T19:33:39.112Z,24.88
2022-10-19T19:36:25.103Z,27.17
2022-10-19T19:39:10.891Z,23.52
2022-10-19T19:41:56.690Z,22.63
2022-10-19T19:44:42.961Z,25.98
2022-10-19T19:47:28.504Z,23.88
2022-10-19T19:50:14.962Z,26.95
2022-10-19T19:53:02.039Z,25.73
2022-10-19T19:55:48.958Z,23.88
2022-10-19T19:58:35.058Z,22.73
2022-10-19T20:01:21.649Z,20.20
2022-10-19T20:04:07.498Z,25.85
2022-10-19T20:06:53.515Z,20.55
2022-10-19T20:09:39.562Z,75.43
2022-10-19T20:12:25.737Z,39.75
2022-10-19T20:15:12.876Z,48.75
2022-10-19T20:17:59.069Z,38.95
2022-10-19T20:20:44.522Z,37.35
2022-10-19T20:23:31.183Z,37.10
2022-10-19T20:26:18.756Z,38.40
2022-10-19T20:29:05.221Z,31.45
2022-10-19T20:31:50.801Z,32.75
2022-10-19T20:34:36.893Z,45.72
2022-10-19T20:37:22.447Z,45.30
2022-10-19T20:40:09.370Z,73.45
2022-10-19T20:42:56.528Z,121.03
2022-10-19T20:45:42.948Z,74.97
2022-10-19T20:48:29.403Z,56.30
2022-10-19T20:51:29.121Z,46.88
2022-10-19T20:54:17.402Z,52.65
2022-10-19T20:57:03.821Z,55.20
2022-10-19T20:59:49.902Z,64.03
2022-10-19T21:02:36.097Z,43.92
2022-10-19T21:05:23.090Z,36.95
2022-10-19T21:08:10.434Z,34.50
2022-10-19T21:10:56.743Z,32.83
2022-10-19T21:13:43.120Z,31.50
2022-10-19T21:16:35.472Z,39.13
2022-10-19T21:19:23.818Z,33.95
2022-10-19T21:22:09.392Z,29.60
2022-10-19T21:24:55.771Z,27.20
2022-10-19T21:27:41.862Z,37.92
2022-10-19T21:30:27.909Z,51.65
2022-10-19T21:33:14.471Z,84.85
2022-10-19T21:36:02.855Z,93.38
2022-10-19T21:38:48.915Z,66.55
2022-10-19T21:41:34.583Z,40.40
2022-10-19T21:44:22.166Z,39.20
2022-10-19T21:47:08.019Z,23.73
2022-10-19T21:49:53.749Z,18.42
2022-10-19T21:52:39.638Z,21.30
2022-10-19T21:55:25.613Z,19.90
2022-10-19T21:58:11.666Z,19.58
2022-10-19T22:01:04.333Z,18.95
2022-10-19T22:03:54.306Z,21.88
2022-10-19T22:06:40.709Z,35.97
2022-10-19T22:09:26.793Z,46.47
2022-10-19T22:17:50.075Z,48.00
2022-10-19T22:20:37.200Z,50.95
2022-10-19T22:23:23.095Z,37.75
2022-10-19T22:26:17.570Z,33.22
2022-10-19T22:29:04.557Z,30.67
2022-10-19T22:31:50.466Z,33.17
2022-10-19T22:34:36.904Z,41.05
2022-10-19T22:37:23.249Z,39.03
2022-10-19T22:40:10.045Z,35.33
2022-10-19T22:42:55.672Z,35.47
2022-10-19T22:45:41.107Z,32.63
2022-10-19T22:48:27.201Z,32.35
2022-10-19T22:51:12.833Z,33.80
2022-10-19T22:53:58.825Z,30.55
2022-10-19T22:56:44.557Z,29.25
2022-10-19T22:59:30.569Z,33.08
2022-10-19T23:02:16.066Z,32.70
2022-10-19T23:05:01.773Z,29.13
2022-10-19T23:07:47.667Z,30.83
2022-10-19T23:10:33.878Z,29.05
2022-10-19T23:13:20.480Z,27.63
2022-10-19T23:16:06.700Z,30.10
2022-10-19T23:18:52.567Z,25.10
2022-10-19T23:21:38.177Z,27.95
2022-10-19T23:24:24.683Z,27.10
2022-10-19T23:27:10.732Z,22.20
2022-10-19T23:29:56.884Z,25.05
2022-10-19T23:32:42.532Z,25.65
2022-10-19T23:35:28.326Z,24.55
2022-10-19T23:38:14.260Z,23.75
2022-10-19T23:41:00.003Z,21.85
2022-10-19T23:43:46.606Z,19.25
2022-10-19T23:46:32.481Z,22.48
2022-10-19T23:49:17.957Z,35.05
2022-10-19T23:52:03.639Z,67.95
2022-10-19T23:54:49.334Z,104.88
2022-10-19T23:57:35.641Z,144.15
